Time;durP1;ratioP1;P1;durP2;ratioP2;P2;SDS_P1;SDS_P2;PMS_P1;PMS_P2;Temp;Humidity;BMP_temperature;BMP_pressure;BME280_temperature;BME280_humidity;BME280_pressure;Samples;Min_cycle;Max_cycle;Signal;HPM_P1;HPM_P2
2023/06/29 00:01:03;;;;;;;21.67;11.68;;;20.80;99.90;;;;;;5074652;28;20036;-66
2023/06/29 00:03:31;;;;;;;23.25;11.90;;;20.80;99.90;;;;;;5074821;28;20021;-66
2023/06/29 00:05:58;;;;;;;23.05;12.93;;;20.70;99.90;;;;;;5073297;28;20024;-66
2023/06/29 00:08:25;;;;;;;24.35;11.65;;;20.70;99.90;;;;;;5073244;28;20431;-67
2023/06/29 00:10:55;;;;;;;24.10;12.23;;;20.70;99.90;;;;;;5074112;28;20468;-67
2023/06/29 00:13:22;;;;;;;23.90;12.85;;;20.70;99.90;;;;;;5074519;28;20033;-66
2023/06/29 00:15:48;;;;;;;24.10;12.57;;;20.70;99.90;;;;;;5070584;28;20097;-67
2023/06/29 00:18:15;;;;;;;24.73;13.30;;;20.70;99.90;;;;;;5074242;28;20542;-65
2023/06/29 00:20:42;;;;;;;22.45;13.45;;;20.60;99.90;;;;;;5071827;28;20024;-66
2023/06/29 00:23:07;;;;;;;22.92;12.77;;;20.60;99.90;;;;;;5073729;28;20044;-66
2023/06/29 00:25:33;;;;;;;24.52;12.85;;;20.60;99.90;;;;;;5074784;28;20421;-67
2023/06/29 00:27:59;;;;;;;24.23;13.80;;;20.60;99.90;;;;;;5074695;28;20016;-66
2023/06/29 00:30:25;;;;;;;20.63;11.70;;;20.60;99.90;;;;;;5074394;28;20025;-66
2023/06/29 00:32:50;;;;;;;24.25;12.50;;;20.60;99.90;;;;;;5074589;28;20409;-67
2023/06/29 00:35:16;;;;;;;25.48;13.70;;;20.60;99.90;;;;;;5074123;28;20166;-66
2023/06/29 00:37:44;;;;;;;24.83;14.32;;;20.50;99.90;;;;;;5073886;28;20078;-67
2023/06/29 00:40:11;;;;;;;26.02;14.10;;;20.50;99.90;;;;;;5074243;28;20016;-66
2023/06/29 00:42:36;;;;;;;24.15;13.40;;;20.50;99.90;;;;;;5073923;28;20170;-66
2023/06/29 00:45:06;;;;;;;22.98;12.82;;;20.40;99.90;;;;;;5073931;28;20103;-66
2023/06/29 00:47:33;;;;;;;25.77;13.65;;;20.40;99.90;;;;;;5074521;28;20510;-68
2023/06/29 00:49:59;;;;;;;24.13;13.65;;;20.50;99.90;;;;;;5074203;28;20533;-66
2023/06/29 00:52:25;;;;;;;24.50;13.77;;;20.40;99.90;;;;;;5073836;28;20495;-67
2023/06/29 00:54:53;;;;;;;27.73;13.90;;;20.40;99.90;;;;;;5074428;28;20029;-66
2023/06/29 00:57:19;;;;;;;25.83;14.15;;;20.40;99.90;;;;;;5074331;28;20044;-67
2023/06/29 00:59:45;;;;;;;25.90;14.05;;;20.40;99.90;;;;;;5074208;28;20078;-67
2023/06/29 01:02:11;;;;;;;24.38;13.60;;;20.40;99.90;;;;;;5074248;28;20036;-66
2023/06/29 01:04:37;;;;;;;28.25;14.18;;;20.30;99.90;;;;;;5072704;28;20021;-67
2023/06/29 01:07:34;;;;;;;23.90;13.65;;;20.30;99.90;;;;;;5073871;28;20032;-67
2023/06/29 01:10:00;;;;;;;28.48;14.57;;;20.30;99.90;;;;;;5074068;28;20032;-67
2023/06/29 01:12:26;;;;;;;27.65;15.98;;;20.20;99.90;;;;;;5074021;28;20398;-67
2023/06/29 01:14:54;;;;;;;24.45;13.80;;;20.20;99.90;;;;;;5073827;28;20040;-67
2023/06/29 01:17:23;;;;;;;25.27;14.68;;;20.20;99.90;;;;;;5073503;28;20456;-66
2023/06/29 01:19:50;;;;;;;24.77;13.30;;;20.10;99.90;;;;;;5073836;28;20028;-66
2023/06/29 01:22:32;;;;;;;26.15;14.35;;;20.10;99.90;;;;;;5073611;28;20037;-67
2023/06/29 01:24:59;;;;;;;27.13;13.82;;;20.10;99.90;;;;;;5073965;28;20027;-66
2023/06/29 01:27:25;;;;;;;27.48;14.70;;;20.10;99.90;;;;;;5073662;28;20134;-67
2023/06/29 01:29:55;;;;;;;26.00;14.02;;;20.10;99.90;;;;;;5073368;28;20116;-67
2023/06/29 01:32:21;;;;;;;25.90;13.93;;;20.10;99.90;;;;;;5073495;28;20107;-67
2023/06/29 01:34:47;;;;;;;25.70;13.30;;;20.10;99.90;;;;;;5073373;28;20127;-67
2023/06/29 01:37:24;;;;;;;26.85;13.18;;;20.10;99.90;;;;;;5072097;28;20482;-66
2023/06/29 01:39:55;;;;;;;25.70;14.18;;;20.00;99.90;;;;;;5073558;28;20064;-66
2023/06/29 01:42:23;;;;;;;25.88;14.00;;;20.00;99.90;;;;;;5073394;28;20512;-67
2023/06/29 01:44:49;;;;;;;25.20;12.80;;;20.00;99.90;;;;;;5073082;28;20035;-67
2023/06/29 01:47:15;;;;;;;25.85;13.70;;;19.90;99.90;;;;;;5071938;28;20435;-67
2023/06/29 01:49:41;;;;;;;25.08;13.25;;;19.90;99.90;;;;;;5073053;28;20025;-66
2023/06/29 01:52:07;;;;;;;29.15;13.48;;;19.90;99.90;;;;;;5073204;28;20035;-65
2023/06/29 01:54:33;;;;;;;26.92;14.00;;;19.90;99.90;;;;;;5072862;28;20442;-67
2023/06/29 01:56:59;;;;;;;24.52;13.90;;;19.80;99.90;;;;;;5072674;28;20036;-66
2023/06/29 01:59:25;;;;;;;27.83;13.80;;;19.80;99.90;;;;;;5073263;28;20036;-66
2023/06/29 02:01:50;;;;;;;28.38;15.00;;;19.80;99.90;;;;;;5072841;28;20033;-66
2023/06/29 02:04:16;;;;;;;25.98;13.98;;;19.80;99.90;;;;;;5073000;28;20373;-65
2023/06/29 02:06:42;;;;;;;25.73;14.73;;;19.70;99.90;;;;;;5073034;28;20350;-67
2023/06/29 02:09:08;;;;;;;28.15;14.98;;;19.70;99.90;;;;;;5072708;28;20034;-67
2023/06/29 02:11:33;;;;;;;28.92;14.82;;;19.70;99.90;;;;;;5072830;28;20032;-66
2023/06/29 02:13:59;;;;;;;28.02;14.35;;;19.70;99.90;;;;;;5072775;28;20547;-65
2023/06/29 02:16:24;;;;;;;28.02;14.00;;;19.70;99.90;;;;;;5072719;28;20445;-66
2023/06/29 02:18:50;;;;;;;28.65;13.80;;;19.70;99.90;;;;;;5072719;28;20016;-67
2023/06/29 02:21:15;;;;;;;27.95;13.98;;;19.70;99.90;;;;;;5071007;28;20483;-66
2023/06/29 02:23:41;;;;;;;25.85;13.52;;;19.70;99.90;;;;;;5072860;28;20025;-66
2023/06/29 02:26:07;;;;;;;29.23;14.48;;;19.70;99.90;;;;;;5072522;28;20054;-66
2023/06/29 02:28:32;;;;;;;30.40;14.80;;;19.70;99.90;;;;;;5072446;28;20032;-65
2023/06/29 02:30:58;;;;;;;25.58;13.60;;;19.60;99.90;;;;;;5072305;28;20081;-66
2023/06/29 02:33:24;;;;;;;27.42;15.80;;;19.60;99.90;;;;;;5072306;28;20090;-66
2023/06/29 02:35:49;;;;;;;31.75;15.15;;;19.60;99.90;;;;;;5072421;28;20036;-65
2023/06/29 02:38:15;;;;;;;29.85;16.73;;;19.50;99.90;;;;;;5071832;28;20112;-67
2023/06/29 02:40:40;;;;;;;32.28;16.17;;;19.50;99.90;;;;;;5071868;28;20032;-66
2023/06/29 02:43:06;;;;;;;32.45;16.30;;;19.50;99.90;;;;;;5072010;28;20484;-66
2023/06/29 02:45:31;;;;;;;31.13;16.38;;;19.40;99.90;;;;;;5072354;28;20474;-66
2023/06/29 02:47:57;;;;;;;31.92;17.10;;;19.40;99.90;;;;;;5072386;28;20495;-66
2023/06/29 02:50:22;;;;;;;33.60;16.45;;;19.40;99.90;;;;;;5072660;28;20063;-66
2023/06/29 02:52:48;;;;;;;34.72;18.05;;;19.40;99.90;;;;;;5083944;28;20483;-66
2023/06/29 02:55:14;;;;;;;33.42;17.98;;;19.30;99.90;;;;;;5077802;28;20028;-66
2023/06/29 02:57:39;;;;;;;32.67;17.60;;;19.40;99.90;;;;;;5088775;28;20035;-67
2023/06/29 03:00:06;;;;;;;35.50;18.30;;;19.30;99.90;;;;;;5076856;28;20395;-66
2023/06/29 03:02:31;;;;;;;33.72;17.08;;;19.30;99.90;;;;;;5076647;28;20082;-66
2023/06/29 03:04:57;;;;;;;34.42;18.58;;;19.30;99.90;;;;;;5084928;28;20480;-66
2023/06/29 03:07:22;;;;;;;35.42;18.33;;;19.30;99.90;;;;;;5076278;28;20021;-67
2023/06/29 03:09:48;;;;;;;33.22;17.35;;;19.30;99.90;;;;;;5088407;28;20024;-65
2023/06/29 03:12:13;;;;;;;31.63;17.30;;;19.40;99.90;;;;;;5077518;28;20379;-66
2023/06/29 03:14:39;;;;;;;33.35;17.90;;;19.40;99.90;;;;;;5082491;28;20107;-66
2023/06/29 03:17:05;;;;;;;36.03;17.75;;;19.40;99.90;;;;;;5084832;28;20025;-65
2023/06/29 03:19:31;;;;;;;32.72;18.30;;;19.40;99.90;;;;;;5075422;28;20040;-66
2023/06/29 03:21:56;;;;;;;33.38;18.65;;;19.30;99.90;;;;;;5058346;28;20028;-66
2023/06/29 03:24:22;;;;;;;33.67;17.30;;;19.40;99.90;;;;;;5084889;28;20453;-66
2023/06/29 03:26:47;;;;;;;34.65;19.20;;;19.40;99.90;;;;;;5082081;28;20028;-66
2023/06/29 03:29:13;;;;;;;33.17;19.42;;;19.40;99.90;;;;;;5081677;28;20044;-67
2023/06/29 03:31:38;;;;;;;32.50;18.55;;;19.50;99.90;;;;;;5092553;28;20024;-66
2023/06/29 03:34:04;;;;;;;34.47;18.65;;;19.50;99.90;;;;;;5080259;28;20044;-65
2023/06/29 03:36:29;;;;;;;35.28;20.33;;;19.50;99.90;;;;;;5088114;28;20044;-66
2023/06/29 03:38:55;;;;;;;37.30;19.08;;;19.50;99.90;;;;;;5085837;28;20024;-66
2023/06/29 03:41:20;;;;;;;36.33;19.50;;;19.60;99.90;;;;;;5080531;28;20556;-66
2023/06/29 03:43:46;;;;;;;37.15;19.45;;;19.60;99.90;;;;;;5092309;28;20020;-66
2023/06/29 03:46:11;;;;;;;37.65;20.33;;;19.60;99.90;;;;;;5080755;28;20107;-67
2023/06/29 03:48:37;;;;;;;39.60;19.88;;;19.60;99.90;;;;;;5086130;28;20403;-66
2023/06/29 03:51:03;;;;;;;40.85;20.27;;;19.60;99.90;;;;;;5088223;28;20024;-67
2023/06/29 03:53:28;;;;;;;37.72;19.38;;;19.60;99.90;;;;;;5078996;28;20123;-66
2023/06/29 03:55:54;;;;;;;40.08;19.98;;;19.60;99.90;;;;;;5092073;28;20040;-66
2023/06/29 03:58:19;;;;;;;34.72;19.73;;;19.60;99.90;;;;;;5082217;28;20035;-66
2023/06/29 04:00:45;;;;;;;34.08;19.52;;;19.60;99.90;;;;;;5083988;28;20017;-66
2023/06/29 04:03:11;;;;;;;33.55;19.20;;;19.60;99.90;;;;;;5084041;28;20040;-66
2023/06/29 04:05:36;;;;;;;38.42;19.85;;;19.70;99.90;;;;;;5091749;28;20036;-66
2023/06/29 04:08:05;;;;;;;40.95;21.63;;;19.70;99.90;;;;;;5079546;28;20479;-66
2023/06/29 04:10:34;;;;;;;39.40;21.63;;;19.70;99.90;;;;;;5086668;28;20033;-67
2023/06/29 04:13:00;;;;;;;40.65;21.15;;;19.70;99.90;;;;;;5087463;28;20380;-67
2023/06/29 04:15:26;;;;;;;37.17;20.45;;;19.70;99.90;;;;;;5079512;28;20091;-66
2023/06/29 04:17:52;;;;;;;37.67;19.73;;;19.70;99.90;;;;;;5092006;28;20472;-66
2023/06/29 04:20:18;;;;;;;39.40;20.42;;;19.70;99.90;;;;;;5081541;28;20028;-66
2023/06/29 04:22:43;;;;;;;37.53;20.33;;;19.80;99.90;;;;;;5085101;28;20518;-66
2023/06/29 04:25:09;;;;;;;37.88;19.55;;;19.80;99.90;;;;;;5088629;28;20020;-65
2023/06/29 04:27:35;;;;;;;36.38;19.95;;;19.80;99.90;;;;;;5078092;28;20372;-66
2023/06/29 04:30:03;;;;;;;38.40;21.10;;;19.70;99.90;;;;;;5090875;28;20048;-67
2023/06/29 04:32:28;;;;;;;43.80;20.85;;;19.70;99.90;;;;;;5082605;28;20032;-65
2023/06/29 04:34:54;;;;;;;40.13;20.48;;;19.70;99.90;;;;;;5082835;28;20094;-66
2023/06/29 04:37:19;;;;;;;39.30;20.98;;;19.70;99.90;;;;;;5089470;28;20482;-66
2023/06/29 04:39:45;;;;;;;40.03;22.13;;;19.60;99.90;;;;;;5077970;28;20081;-67
2023/06/29 04:42:13;;;;;;;38.63;20.73;;;19.70;99.90;;;;;;5088603;28;20051;-66
2023/06/29 04:44:39;;;;;;;40.92;21.40;;;19.70;99.90;;;;;;5083813;28;20035;-66
2023/06/29 04:47:05;;;;;;;37.70;22.13;;;19.70;99.90;;;;;;5081449;28;20353;-66
2023/06/29 04:49:32;;;;;;;40.35;20.88;;;19.70;99.90;;;;;;5091215;28;20476;-67
2023/06/29 04:52:00;;;;;;;37.92;20.67;;;19.70;99.90;;;;;;5061638;28;20115;-66
2023/06/29 04:54:27;;;;;;;39.63;21.45;;;19.70;99.90;;;;;;5087014;28;20024;-66
2023/06/29 04:56:54;;;;;;;32.60;19.23;;;19.70;99.90;;;;;;5085608;28;20460;-66
2023/06/29 04:59:23;;;;;;;37.90;20.95;;;19.80;99.90;;;;;;5079373;28;20028;-67
2023/06/29 05:01:49;;;;;;;36.80;20.75;;;19.80;99.90;;;;;;5090797;28;20112;-66
2023/06/29 05:04:14;;;;;;;37.35;19.05;;;19.90;99.90;;;;;;5079903;28;20055;-67
2023/06/29 05:06:40;;;;;;;35.72;20.30;;;20.00;99.90;;;;;;5084620;28;20508;-67
2023/06/29 05:09:06;;;;;;;34.90;19.20;;;20.00;99.90;;;;;;5087069;28;20036;-66
2023/06/29 05:11:32;;;;;;;38.47;20.40;;;20.10;99.90;;;;;;5077610;28;20040;-66
2023/06/29 05:13:57;;;;;;;34.30;19.08;;;20.20;99.90;;;;;;5090696;28;20020;-66
2023/06/29 05:16:23;;;;;;;33.05;18.58;;;20.30;99.90;;;;;;5073828;28;20078;-66
2023/06/29 05:18:48;;;;;;;33.97;19.25;;;20.40;99.90;;;;;;5085184;28;20032;-67
2023/06/29 05:21:14;;;;;;;31.73;18.50;;;20.50;99.90;;;;;;5079437;28;20021;-66
2023/06/29 05:23:40;;;;;;;33.47;18.52;;;20.50;99.90;;;;;;5090566;28;20030;-66
2023/06/29 05:26:05;;;;;;;29.30;17.42;;;20.50;99.90;;;;;;5078778;28;20460;-67
2023/06/29 05:28:31;;;;;;;31.70;18.02;;;20.50;99.90;;;;;;5085594;28;20052;-67
2023/06/29 05:30:57;;;;;;;31.42;17.30;;;20.50;99.90;;;;;;5085650;28;20028;-67
2023/06/29 05:33:23;;;;;;;33.03;18.73;;;20.50;99.90;;;;;;5077745;28;20051;-67
2023/06/29 05:35:49;;;;;;;33.13;18.73;;;20.50;99.90;;;;;;5090242;28;20035;-67
2023/06/29 05:38:14;;;;;;;31.48;17.92;;;20.50;99.90;;;;;;5079394;28;20411;-67
2023/06/29 05:40:40;;;;;;;30.88;17.60;;;20.60;99.90;;;;;;5084336;28;20392;-66
2023/06/29 05:43:06;;;;;;;29.23;17.25;;;20.60;99.90;;;;;;5086792;28;20036;-65
2023/06/29 05:45:31;;;;;;;34.58;18.45;;;20.70;99.90;;;;;;5076983;28;20032;-67
2023/06/29 05:47:57;;;;;;;32.25;18.13;;;20.70;99.90;;;;;;5090134;28;20024;-67
2023/06/29 05:50:23;;;;;;;30.83;17.60;;;20.70;99.90;;;;;;5080005;28;20032;-66
2023/06/29 05:52:48;;;;;;;31.45;18.02;;;20.80;99.90;;;;;;5082570;28;20028;-66
2023/06/29 05:55:14;;;;;;;30.67;17.10;;;20.80;99.90;;;;;;5087760;28;20341;-67
2023/06/29 05:57:39;;;;;;;30.90;17.52;;;20.90;99.90;;;;;;5092064;28;20418;-67
2023/06/29 06:00:11;;;;;;;31.17;18.13;;;20.90;99.90;;;;;;5077398;28;20054;-66
2023/06/29 06:02:40;;;;;;;29.40;18.45;;;21.00;99.90;;;;;;5083870;28;20040;-68
2023/06/29 06:05:09;;;;;;;32.30;18.65;;;21.10;99.90;;;;;;5086104;28;20028;-67
2023/06/29 06:07:35;;;;;;;32.97;20.13;;;21.10;99.90;;;;;;5075998;28;20086;-66
2023/06/29 06:10:01;;;;;;;32.72;19.13;;;21.10;99.90;;;;;;5088626;28;20033;-66
2023/06/29 06:12:27;;;;;;;32.33;17.38;;;21.10;99.90;;;;;;5071402;28;20460;-66
2023/06/29 06:14:53;;;;;;;33.67;18.55;;;21.00;99.90;;;;;;5083988;28;20035;-66
2023/06/29 06:17:18;;;;;;;32.35;18.75;;;21.00;99.90;;;;;;5077225;28;20029;-66
2023/06/29 06:19:44;;;;;;;32.63;18.95;;;21.00;99.90;;;;;;5089490;28;20016;-66
2023/06/29 06:22:10;;;;;;;30.77;19.40;;;21.00;99.90;;;;;;5077741;28;20036;-66
2023/06/29 06:24:35;;;;;;;29.30;18.08;;;21.00;99.90;;;;;;5084017;28;20376;-66
2023/06/29 06:27:01;;;;;;;36.25;20.55;;;21.10;99.90;;;;;;5085274;28;20104;-67
2023/06/29 06:29:27;;;;;;;34.45;19.55;;;21.10;99.90;;;;;;5076670;28;20364;-66
2023/06/29 06:31:53;;;;;;;34.15;20.50;;;21.20;99.90;;;;;;5088548;28;20077;-67
2023/06/29 06:34:19;;;;;;;33.47;20.77;;;21.20;99.90;;;;;;5079165;28;20047;-67
2023/06/29 06:36:47;;;;;;;33.50;20.17;;;21.20;99.90;;;;;;5082543;28;20033;-67
2023/06/29 06:39:16;;;;;;;32.35;20.38;;;21.30;99.90;;;;;;5086972;28;20409;-67
2023/06/29 06:41:42;;;;;;;33.03;19.98;;;21.30;99.90;;;;;;5073672;28;20376;-66
2023/06/29 06:44:08;;;;;;;32.00;19.00;;;21.30;99.90;;;;;;5077391;28;20075;-66
2023/06/29 06:46:34;;;;;;;36.60;21.67;;;21.30;99.90;;;;;;5082029;28;20106;-66
2023/06/29 06:49:00;;;;;;;33.95;20.92;;;21.30;99.90;;;;;;5071276;28;20017;-67
2023/06/29 06:51:27;;;;;;;33.28;20.80;;;21.40;99.90;;;;;;5088184;28;20506;-67
2023/06/29 06:53:54;;;;;;;33.00;20.80;;;21.50;99.90;;;;;;5075473;28;20099;-66
2023/06/29 06:56:19;;;;;;;35.03;21.50;;;21.60;99.90;;;;;;5091991;28;20029;-66
2023/06/29 06:58:45;;;;;;;35.10;20.65;;;21.70;99.90;;;;;;5088359;28;20034;-66
2023/06/29 07:01:11;;;;;;;36.25;21.77;;;21.70;99.90;;;;;;5077939;28;20060;-66
2023/06/29 07:03:36;;;;;;;36.10;22.02;;;21.80;99.90;;;;;;5087678;28;20539;-67
2023/06/29 07:06:02;;;;;;;35.55;20.83;;;21.70;99.90;;;;;;5075983;28;20243;-67
2023/06/29 07:08:28;;;;;;;37.38;22.35;;;21.80;99.90;;;;;;5084494;28;20044;-67
2023/06/29 07:10:53;;;;;;;33.97;19.95;;;21.70;99.90;;;;;;5078482;28;20033;-67
2023/06/29 07:13:19;;;;;;;29.08;15.95;;;21.60;99.90;;;;;;5075241;28;20024;-66
2023/06/29 07:15:47;;;;;;;31.92;17.38;;;21.60;99.90;;;;;;5071565;28;20093;-67
2023/06/29 07:18:13;;;;;;;28.30;15.85;;;21.50;99.90;;;;;;5072241;28;20033;-67
2023/06/29 07:20:38;;;;;;;31.08;15.88;;;21.60;99.90;;;;;;5072404;28;20036;-67
2023/06/29 07:23:04;;;;;;;30.50;15.88;;;21.70;99.90;;;;;;5071657;28;20049;-66
2023/06/29 07:25:29;;;;;;;29.58;14.02;;;21.90;99.90;;;;;;5072015;28;20457;-67
2023/06/29 07:27:55;;;;;;;24.65;13.10;;;21.90;99.90;;;;;;5071907;28;20439;-67
2023/06/29 07:30:20;;;;;;;26.30;12.75;;;21.80;99.90;;;;;;5072163;28;20460;-67
2023/06/29 07:32:46;;;;;;;22.77;12.60;;;21.80;99.90;;;;;;5070585;28;20403;-67
2023/06/29 07:35:12;;;;;;;23.35;12.00;;;21.90;99.90;;;;;;5072110;28;20072;-66
2023/06/29 07:37:37;;;;;;;24.98;13.07;;;22.00;99.90;;;;;;5072028;28;20021;-67
2023/06/29 07:40:04;;;;;;;23.50;12.20;;;22.00;99.90;;;;;;5071812;28;20033;-67
2023/06/29 07:42:30;;;;;;;22.95;12.13;;;22.00;99.90;;;;;;5071338;28;20045;-67
2023/06/29 07:44:55;;;;;;;24.23;13.10;;;22.10;99.90;;;;;;5070390;28;20025;-67
2023/06/29 07:47:21;;;;;;;24.08;12.23;;;22.20;99.90;;;;;;5072255;28;20099;-67
2023/06/29 07:49:47;;;;;;;25.25;12.05;;;22.30;99.90;;;;;;5071489;28;20031;-68
2023/06/29 07:52:12;;;;;;;22.55;12.20;;;22.30;99.90;;;;;;5071271;28;20046;-67
2023/06/29 07:54:38;;;;;;;24.42;13.18;;;22.40;99.90;;;;;;5072054;28;20078;-67
2023/06/29 07:57:04;;;;;;;25.10;12.57;;;22.50;99.90;;;;;;5071660;28;20064;-67
2023/06/29 07:59:29;;;;;;;26.60;11.77;;;22.50;99.90;;;;;;5071211;28;20057;-68
2023/06/29 08:01:55;;;;;;;27.20;14.02;;;22.50;99.90;;;;;;5071742;28;20036;-66
2023/06/29 08:04:20;;;;;;;27.92;14.98;;;22.50;99.90;;;;;;5071963;28;20028;-67
2023/06/29 08:06:46;;;;;;;27.42;14.48;;;22.50;99.90;;;;;;5072147;28;20098;-66
2023/06/29 08:09:11;;;;;;;30.63;13.65;;;22.50;99.90;;;;;;5071856;28;20056;-67
2023/06/29 08:11:38;;;;;;;28.08;12.50;;;22.40;99.90;;;;;;5071229;28;20128;-66
2023/06/29 08:14:04;;;;;;;24.67;13.30;;;22.40;99.90;;;;;;5072388;28;20024;-67
2023/06/29 08:16:30;;;;;;;29.63;13.98;;;22.40;99.90;;;;;;5074810;28;20051;-66
2023/06/29 08:18:56;;;;;;;23.85;12.68;;;22.50;99.90;;;;;;5074694;28;20081;-67
2023/06/29 08:21:22;;;;;;;24.85;12.27;;;22.80;99.90;;;;;;5074811;28;20464;-66
2023/06/29 08:23:49;;;;;;;24.92;13.02;;;23.10;99.90;;;;;;5075308;28;20064;-66
2023/06/29 08:26:15;;;;;;;26.38;12.75;;;23.60;99.90;;;;;;5074639;28;20020;-66
2023/06/29 08:28:41;;;;;;;25.45;13.02;;;24.00;99.90;;;;;;5074602;28;20078;-67
2023/06/29 08:31:06;;;;;;;24.85;11.68;;;24.40;99.90;;;;;;5074525;28;20024;-67
2023/06/29 08:33:32;;;;;;;23.85;12.50;;;24.50;99.90;;;;;;5074032;28;20044;-68
2023/06/29 08:35:57;;;;;;;23.80;12.30;;;24.70;99.90;;;;;;5074166;28;20102;-67
2023/06/29 08:38:23;;;;;;;22.75;12.68;;;24.70;99.90;;;;;;5074552;28;20025;-67
2023/06/29 08:40:49;;;;;;;24.08;13.27;;;24.70;99.90;;;;;;5074173;28;20024;-67
2023/06/29 08:43:15;;;;;;;24.65;12.60;;;24.60;99.90;;;;;;5072607;28;20068;-67
2023/06/29 08:45:42;;;;;;;27.30;13.52;;;24.60;99.90;;;;;;5074049;28;20028;-66
2023/06/29 08:48:09;;;;;;;25.70;12.60;;;24.60;99.90;;;;;;5072892;28;20415;-66
2023/06/29 08:50:40;;;;;;;24.35;12.15;;;24.70;99.90;;;;;;5074124;28;20465;-67
2023/06/29 08:53:06;;;;;;;28.30;12.63;;;24.70;99.90;;;;;;5074011;28;20021;-67
2023/06/29 08:55:32;;;;;;;24.58;13.40;;;24.70;99.90;;;;;;5073582;28;20445;-67
2023/06/29 08:57:58;;;;;;;25.98;12.50;;;24.80;99.90;;;;;;5074560;28;20112;-67
2023/06/29 09:00:24;;;;;;;24.77;12.10;;;25.30;99.90;;;;;;5073876;28;20039;-67
2023/06/29 09:02:53;;;;;;;24.70;12.35;;;25.90;99.90;;;;;;5074256;28;20383;-67
2023/06/29 09:05:19;;;;;;;24.95;12.65;;;26.60;99.90;;;;;;5074398;28;20029;-67
2023/06/29 09:07:44;;;;;;;27.08;12.07;;;27.10;99.90;;;;;;5073543;28;20059;-67
2023/06/29 09:10:11;;;;;;;24.50;12.65;;;27.10;99.90;;;;;;5073393;28;20469;-66
2023/06/29 09:12:36;;;;;;;28.05;12.82;;;26.90;99.90;;;;;;5072051;28;20025;-67
2023/06/29 09:15:08;;;;;;;25.23;12.77;;;26.70;99.90;;;;;;5073846;28;20358;-66
2023/06/29 09:17:34;;;;;;;26.13;13.15;;;26.40;99.90;;;;;;5074213;28;20100;-67
2023/06/29 09:20:07;;;;;;;25.73;13.00;;;26.00;99.90;;;;;;5074259;28;20032;-68
2023/06/29 09:22:33;;;;;;;25.38;13.18;;;25.90;99.90;;;;;;5074198;28;20040;-67
2023/06/29 09:24:59;;;;;;;23.55;12.40;;;26.00;99.90;;;;;;5073177;28;20051;-65
2023/06/29 09:27:26;;;;;;;24.25;11.10;;;25.90;99.90;;;;;;5073313;28;20081;-66
2023/06/29 09:29:53;;;;;;;26.50;13.35;;;25.90;99.90;;;;;;5074219;28;20479;-66
2023/06/29 09:32:18;;;;;;;28.40;13.35;;;25.80;99.90;;;;;;5087816;28;20127;-67
2023/06/29 09:34:46;;;;;;;22.83;12.52;;;25.60;99.90;;;;;;5076202;28;20056;-66
2023/06/29 09:37:14;;;;;;;25.60;12.70;;;25.50;99.90;;;;;;5075310;28;20107;-67
2023/06/29 09:39:58;;;;;;;27.20;13.32;;;25.40;99.90;;;;;;5072452;28;20032;-67
2023/06/29 09:42:24;;;;;;;27.05;12.65;;;25.30;99.90;;;;;;5053312;28;20098;-67
2023/06/29 09:44:50;;;;;;;23.38;10.02;;;25.10;99.90;;;;;;5053863;28;20029;-66
2023/06/29 09:47:18;;;;;;;26.70;13.57;;;25.00;99.90;;;;;;5082618;28;20028;-66
2023/06/29 09:49:48;;;;;;;27.08;13.93;;;24.90;99.90;;;;;;5093555;28;20104;-67
2023/06/29 09:52:15;;;;;;;24.60;13.52;;;24.90;99.90;;;;;;5094093;28;20069;-67
2023/06/29 09:54:41;;;;;;;26.90;13.85;;;24.90;99.90;;;;;;5093691;28;20035;-67
2023/06/29 09:57:07;;;;;;;26.13;13.75;;;24.70;99.90;;;;;;5093670;28;20077;-68
2023/06/29 09:59:38;;;;;;;26.23;12.95;;;24.70;99.90;;;;;;5093193;28;20031;-67
2023/06/29 10:02:04;;;;;;;25.35;14.05;;;24.80;99.90;;;;;;5093139;28;20464;-67
2023/06/29 10:04:29;;;;;;;24.75;13.63;;;24.80;99.90;;;;;;5075286;28;20033;-68
2023/06/29 10:07:09;;;;;;;28.05;14.63;;;24.60;99.90;;;;;;5073173;28;20020;-68
2023/06/29 10:09:39;;;;;;;27.50;15.25;;;24.30;99.90;;;;;;5071590;28;20028;-68
2023/06/29 10:12:16;;;;;;;30.13;15.48;;;24.20;99.90;;;;;;5072938;28;20103;-68
2023/06/29 10:14:44;;;;;;;28.02;14.38;;;23.90;99.90;;;;;;5072731;28;20066;-67
2023/06/29 10:17:15;;;;;;;29.70;14.48;;;23.70;99.90;;;;;;5072893;28;20028;-67
2023/06/29 10:19:42;;;;;;;26.77;13.57;;;23.50;99.90;;;;;;5073105;28;20037;-67
2023/06/29 10:22:12;;;;;;;25.05;12.70;;;23.50;99.90;;;;;;5073189;28;20086;-67
2023/06/29 10:24:47;;;;;;;26.48;13.30;;;23.50;99.90;;;;;;5072946;28;20032;-67
2023/06/29 10:27:15;;;;;;;28.63;13.73;;;23.50;99.90;;;;;;5072561;28;20032;-68
2023/06/29 10:29:49;;;;;;;27.02;14.25;;;23.70;99.90;;;;;;5072629;28;20039;-67
2023/06/29 10:32:34;;;;;;;24.25;13.32;;;23.70;99.90;;;;;;5072472;28;20492;-68
2023/06/29 10:35:13;;;;;;;26.58;13.98;;;23.70;99.90;;;;;;5072625;28;20052;-67
2023/06/29 10:37:41;;;;;;;29.38;14.90;;;23.60;99.90;;;;;;5079713;28;20055;-67
2023/06/29 10:40:15;;;;;;;24.85;14.73;;;23.50;99.90;;;;;;5092883;28;20137;-68
2023/06/29 10:42:40;;;;;;;27.17;15.02;;;23.30;99.90;;;;;;5092939;28;20068;-66
2023/06/29 10:45:09;;;;;;;26.48;12.70;;;23.20;99.90;;;;;;5092449;28;20479;-67
2023/06/29 10:47:39;;;;;;;26.73;14.38;;;23.10;99.90;;;;;;5093082;28;20028;-67
2023/06/29 10:50:10;;;;;;;28.40;14.50;;;23.10;99.90;;;;;;5092373;28;20031;-68
2023/06/29 10:52:37;;;;;;;27.58;13.93;;;23.00;99.90;;;;;;5092782;28;20105;-67
2023/06/29 10:55:15;;;;;;;25.95;13.68;;;23.00;99.90;;;;;;5092084;28;20368;-67
2023/06/29 10:57:55;;;;;;;25.33;14.35;;;23.00;99.90;;;;;;5092330;28;20027;-67
2023/06/29 11:00:24;;;;;;;29.98;15.43;;;22.90;99.90;;;;;;5092226;28;20466;-67
2023/06/29 11:02:50;;;;;;;31.08;15.93;;;22.80;99.90;;;;;;5092260;28;20036;-67
2023/06/29 11:05:16;;;;;;;31.20;16.20;;;22.80;99.90;;;;;;5092464;28;20024;-67
2023/06/29 11:07:44;;;;;;;30.90;16.15;;;22.90;99.90;;;;;;5092424;28;20036;-67
2023/06/29 11:10:10;;;;;;;31.95;16.98;;;22.90;99.90;;;;;;5092296;28;20514;-67
2023/06/29 11:12:40;;;;;;;33.65;17.52;;;22.80;99.90;;;;;;5092150;28;20034;-67
2023/06/29 11:15:12;;;;;;;32.10;15.82;;;22.80;99.90;;;;;;5091967;28;20024;-68
2023/06/29 11:17:38;;;;;;;31.38;16.23;;;22.90;99.90;;;;;;5092691;28;20094;-68
2023/06/29 11:20:05;;;;;;;31.25;16.30;;;23.00;99.90;;;;;;5092420;28;20115;-68
2023/06/29 11:22:32;;;;;;;32.83;16.92;;;23.00;99.90;;;;;;5090882;28;20153;-67
2023/06/29 11:24:58;;;;;;;28.92;15.80;;;22.90;99.90;;;;;;5092258;28;20375;-68
2023/06/29 11:27:23;;;;;;;30.67;16.85;;;22.80;99.90;;;;;;5092263;28;20028;-67
2023/06/29 11:29:58;;;;;;;33.97;16.15;;;22.90;99.90;;;;;;5091506;28;20043;-66
2023/06/29 11:32:26;;;;;;;29.35;15.93;;;22.90;99.90;;;;;;5073455;28;20031;-67
2023/06/29 11:34:59;;;;;;;29.98;16.60;;;22.90;99.90;;;;;;5071316;28;20143;-67
2023/06/29 11:37:25;;;;;;;29.77;15.02;;;22.90;99.90;;;;;;5071871;28;20068;-68
2023/06/29 11:39:51;;;;;;;26.30;15.38;;;23.00;99.90;;;;;;5071793;28;20024;-67
2023/06/29 11:42:22;;;;;;;31.38;15.05;;;23.40;99.90;;;;;;5071385;28;20052;-68
2023/06/29 11:45:04;;;;;;;29.35;14.43;;;23.70;99.90;;;;;;5071634;28;20175;-67
2023/06/29 11:47:30;;;;;;;27.63;13.60;;;24.00;99.90;;;;;;5072076;28;20029;-68
2023/06/29 11:49:59;;;;;;;26.02;12.80;;;24.30;99.90;;;;;;5074717;28;20027;-68
2023/06/29 11:52:27;;;;;;;23.10;11.35;;;25.10;99.90;;;;;;5074180;28;20395;-67
2023/06/29 11:54:53;;;;;;;23.75;11.70;;;26.20;99.90;;;;;;5075041;28;20089;-68
2023/06/29 11:57:18;;;;;;;22.13;10.35;;;26.80;99.90;;;;;;5073948;28;20033;-67
2023/06/29 11:59:45;;;;;;;18.67;9.57;;;27.10;99.90;;;;;;5075472;28;20083;-68
2023/06/29 12:02:13;;;;;;;19.88;9.95;;;27.10;99.90;;;;;;5075342;28;20048;-67
2023/06/29 12:04:38;;;;;;;19.98;9.00;;;27.10;99.90;;;;;;5075415;28;20044;-68
2023/06/29 12:07:04;;;;;;;19.13;9.85;;;27.10;99.90;;;;;;5075146;28;20024;-68
2023/06/29 12:09:31;;;;;;;19.33;9.23;;;27.10;99.90;;;;;;5075107;28;20032;-67
2023/06/29 12:11:58;;;;;;;19.17;9.35;;;27.00;99.90;;;;;;5075419;28;20032;-69
2023/06/29 12:14:28;;;;;;;19.33;10.15;;;26.70;99.90;;;;;;5075568;28;20032;-68
2023/06/29 12:16:54;;;;;;;22.00;11.68;;;26.60;99.90;;;;;;5075228;28;20522;-68
2023/06/29 12:19:20;;;;;;;21.90;10.68;;;26.40;99.90;;;;;;5075078;28;20043;-67
2023/06/29 12:21:45;;;;;;;24.05;11.48;;;26.10;99.90;;;;;;5074539;28;20036;-67
2023/06/29 12:24:16;;;;;;;20.83;9.93;;;25.90;99.90;;;;;;5074812;28;20028;-68
2023/06/29 12:26:42;;;;;;;21.15;9.38;;;25.70;99.90;;;;;;5075166;28;20039;-68